Time;durP1;ratioP1;P1;durP2;ratioP2;P2;SDS_P1;SDS_P2;PMS_P1;PMS_P2;Temp;Humidity;BMP_temperature;BMP_pressure;BME280_temperature;BME280_humidity;BME280_pressure;Samples;Min_cycle;Max_cycle;Signal;HPM_P1;HPM_P2
2021/01/07 00:02:13;;;;;;;7.87;7.17;;;2.20;99.90;;;;;;4949113;28;20188;-70
2021/01/07 00:04:39;;;;;;;8.10;7.13;;;2.30;99.90;;;;;;4949697;28;20208;-70
2021/01/07 00:07:05;;;;;;;7.90;7.10;;;2.30;99.90;;;;;;4949764;29;20177;-70
2021/01/07 00:09:30;;;;;;;9.73;7.87;;;2.20;99.90;;;;;;4948745;28;20181;-70
2021/01/07 00:11:56;;;;;;;9.53;8.43;;;2.20;99.90;;;;;;4949645;29;20428;-70
2021/01/07 00:14:22;;;;;;;7.43;6.73;;;2.20;99.90;;;;;;4949211;28;20177;-69
2021/01/07 00:16:48;;;;;;;7.67;6.93;;;2.20;99.90;;;;;;4949266;28;20584;-70
2021/01/07 00:19:14;;;;;;;7.73;7.03;;;2.30;99.90;;;;;;4948207;29;20464;-69
2021/01/07 00:21:40;;;;;;;10.83;7.13;;;2.30;99.90;;;;;;4949286;29;20242;-69
2021/01/07 00:24:06;;;;;;;7.90;5.90;;;2.20;99.90;;;;;;4949225;29;20177;-68
2021/01/07 00:26:31;;;;;;;7.33;6.57;;;2.30;99.90;;;;;;4948972;29;20495;-69
2021/01/07 00:28:57;;;;;;;9.67;6.73;;;2.20;99.90;;;;;;4948699;29;21082;-69
2021/01/07 00:31:22;;;;;;;8.40;7.37;;;2.20;99.90;;;;;;4949185;28;20218;-70
2021/01/07 00:33:48;;;;;;;8.80;6.90;;;2.20;99.90;;;;;;4949381;28;20203;-69
2021/01/07 00:36:17;;;;;;;8.43;7.63;;;2.20;99.90;;;;;;4952665;29;20177;-70
2021/01/07 00:38:42;;;;;;;8.50;7.43;;;2.20;99.90;;;;;;4952402;29;20284;-70
2021/01/07 00:41:08;;;;;;;9.73;8.27;;;2.20;99.90;;;;;;4951354;29;20523;-69
2021/01/07 00:43:33;;;;;;;9.23;8.20;;;2.20;99.90;;;;;;4953033;29;20173;-70
2021/01/07 00:45:59;;;;;;;9.07;7.30;;;2.20;99.90;;;;;;4953105;29;20196;-70
2021/01/07 00:48:25;;;;;;;10.50;7.30;;;2.20;99.90;;;;;;4951961;29;20196;-70
2021/01/07 00:50:50;;;;;;;8.93;8.03;;;2.30;99.90;;;;;;4953047;29;20197;-69
2021/01/07 00:53:16;;;;;;;8.30;7.20;;;2.30;99.90;;;;;;4952951;29;20584;-69
2021/01/07 00:55:41;;;;;;;9.10;7.67;;;2.30;99.90;;;;;;4953192;29;20231;-70
2021/01/07 00:58:08;;;;;;;10.03;8.30;;;2.40;99.90;;;;;;4952143;29;20201;-70
2021/01/07 01:00:34;;;;;;;9.60;8.00;;;2.30;99.90;;;;;;4951772;29;20216;-71
2021/01/07 01:03:00;;;;;;;10.20;8.30;;;2.20;99.90;;;;;;4952779;28;20432;-71
2021/01/07 01:05:25;;;;;;;8.00;7.20;;;2.30;99.90;;;;;;4952827;29;20451;-71
2021/01/07 01:07:52;;;;;;;9.20;8.30;;;2.30;99.90;;;;;;4952168;28;20474;-69
2021/01/07 01:10:17;;;;;;;9.80;8.50;;;2.30;99.90;;;;;;4952127;28;20203;-71
2021/01/07 01:12:43;;;;;;;10.57;8.10;;;2.30;99.90;;;;;;4952727;28;20421;-70
2021/01/07 01:15:11;;;;;;;10.10;8.90;;;2.40;99.90;;;;;;4952624;28;20184;-70
2021/01/07 01:17:41;;;;;;;9.20;7.63;;;2.40;99.90;;;;;;4952351;28;20267;-69
2021/01/07 01:20:09;;;;;;;11.17;9.07;;;2.40;99.90;;;;;;4952510;28;20483;-70
2021/01/07 01:22:35;;;;;;;11.17;8.73;;;2.40;99.90;;;;;;4952505;28;20424;-70
2021/01/07 01:25:01;;;;;;;9.60;8.00;;;2.40;99.90;;;;;;4952164;28;20424;-70
2021/01/07 01:27:27;;;;;;;11.13;8.80;;;2.40;99.90;;;;;;4952539;28;20444;-69
2021/01/07 01:29:54;;;;;;;10.30;8.07;;;2.40;99.90;;;;;;4951535;28;20591;-69
2021/01/07 01:32:20;;;;;;;10.13;8.70;;;2.50;99.90;;;;;;4952022;28;20524;-70
2021/01/07 01:34:45;;;;;;;10.60;9.50;;;2.50;99.90;;;;;;4952455;28;20507;-69
2021/01/07 01:37:11;;;;;;;11.07;9.33;;;2.40;99.90;;;;;;4951935;28;20184;-70
2021/01/07 01:39:36;;;;;;;11.37;8.80;;;2.30;99.90;;;;;;4951174;28;20208;-70
2021/01/07 01:42:02;;;;;;;9.00;7.67;;;2.30;99.90;;;;;;4952051;28;20181;-69
2021/01/07 01:44:27;;;;;;;8.70;7.87;;;2.40;99.90;;;;;;4952115;28;20257;-70
2021/01/07 01:46:53;;;;;;;11.23;8.37;;;2.40;99.90;;;;;;4951314;28;20576;-70
2021/01/07 01:49:20;;;;;;;9.27;8.20;;;2.30;99.90;;;;;;4951157;28;20643;-70
2021/01/07 01:51:48;;;;;;;11.00;8.87;;;2.30;99.90;;;;;;4951812;28;20663;-70
2021/01/07 01:54:14;;;;;;;10.00;8.47;;;2.20;99.90;;;;;;4951486;28;20431;-69
2021/01/07 01:56:40;;;;;;;10.40;7.80;;;2.20;99.90;;;;;;4951757;28;20424;-69
2021/01/07 01:59:05;;;;;;;10.03;8.77;;;2.20;99.90;;;;;;4950835;28;20487;-69
2021/01/07 02:01:31;;;;;;;8.70;7.80;;;2.20;99.90;;;;;;4950642;28;20934;-69
2021/01/07 02:03:56;;;;;;;16.60;8.53;;;2.20;99.90;;;;;;4951497;28;20611;-70
2021/01/07 02:06:26;;;;;;;14.20;8.90;;;2.20;99.90;;;;;;4951613;28;20694;-69
2021/01/07 02:08:52;;;;;;;10.63;8.40;;;2.20;99.90;;;;;;4950485;29;20184;-70
2021/01/07 02:11:18;;;;;;;13.40;10.10;;;2.10;99.90;;;;;;4951346;29;20539;-70
2021/01/07 02:13:45;;;;;;;12.43;9.03;;;2.10;99.90;;;;;;4951470;28;20507;-70
2021/01/07 02:16:11;;;;;;;9.53;8.20;;;2.10;99.90;;;;;;4951116;28;20188;-69
2021/01/07 02:18:36;;;;;;;10.10;8.97;;;2.00;99.90;;;;;;4950563;29;20420;-70
2021/01/07 02:21:03;;;;;;;11.43;8.60;;;2.00;99.90;;;;;;4949763;29;20189;-69
2021/01/07 02:23:29;;;;;;;8.93;7.77;;;1.90;99.90;;;;;;4951254;29;20177;-70
2021/01/07 02:25:55;;;;;;;9.33;8.00;;;1.90;99.90;;;;;;4951033;29;20475;-70
2021/01/07 02:28:21;;;;;;;10.20;6.67;;;1.90;99.90;;;;;;4950679;29;20526;-69
2021/01/07 02:30:47;;;;;;;7.67;6.83;;;1.80;99.90;;;;;;4951285;28;20459;-69
2021/01/07 02:33:13;;;;;;;7.93;6.70;;;1.80;99.90;;;;;;4951671;29;20267;-70
2021/01/07 02:35:39;;;;;;;8.20;7.20;;;1.80;99.90;;;;;;4951338;29;20189;-70
2021/01/07 02:38:05;;;;;;;9.17;6.87;;;1.80;99.90;;;;;;4950105;28;20436;-70
2021/01/07 02:40:31;;;;;;;9.67;7.10;;;1.80;99.90;;;;;;4950922;29;20480;-69
2021/01/07 02:42:57;;;;;;;8.10;7.30;;;1.80;99.90;;;;;;4950855;29;20189;-69
2021/01/07 02:45:22;;;;;;;8.77;6.67;;;1.80;99.90;;;;;;4950810;29;20429;-70
2021/01/07 02:47:48;;;;;;;10.13;6.70;;;1.80;99.90;;;;;;4949858;29;20173;-69
2021/01/07 02:50:13;;;;;;;8.90;7.57;;;1.80;99.90;;;;;;4950754;29;20208;-69
2021/01/07 02:52:39;;;;;;;8.03;6.07;;;1.70;99.90;;;;;;4950797;29;20649;-70
2021/01/07 02:55:05;;;;;;;6.37;5.70;;;1.70;99.90;;;;;;4950619;29;20192;-70
2021/01/07 02:57:31;;;;;;;6.07;5.10;;;1.60;99.90;;;;;;4949591;28;20213;-69
2021/01/07 02:59:56;;;;;;;6.40;5.73;;;1.60;99.90;;;;;;4948823;29;20570;-70
2021/01/07 03:02:22;;;;;;;6.00;5.43;;;1.60;99.90;;;;;;4950740;29;20424;-70
2021/01/07 03:04:48;;;;;;;8.43;5.73;;;1.60;99.90;;;;;;4950393;28;20184;-70
2021/01/07 03:07:13;;;;;;;7.20;6.27;;;1.60;99.90;;;;;;4950636;28;20180;-70
2021/01/07 03:09:39;;;;;;;7.83;5.60;;;1.60;99.90;;;;;;4949490;28;20543;-70
2021/01/07 03:12:18;;;;;;;9.30;6.77;;;1.70;99.90;;;;;;4950486;28;20181;-70
2021/01/07 03:14:45;;;;;;;8.63;5.90;;;1.70;99.90;;;;;;4950484;28;20176;-70
2021/01/07 03:17:11;;;;;;;5.67;5.07;;;1.70;99.90;;;;;;4950412;28;20460;-70
2021/01/07 03:19:37;;;;;;;7.47;6.37;;;1.70;99.90;;;;;;4949601;28;20887;-70
2021/01/07 03:22:03;;;;;;;6.63;5.53;;;1.70;99.90;;;;;;4950217;28;20507;-70
2021/01/07 03:24:32;;;;;;;9.83;6.07;;;1.70;99.90;;;;;;4950091;28;20173;-71
2021/01/07 03:26:58;;;;;;;7.50;5.53;;;1.80;99.90;;;;;;4950057;28;20527;-69
2021/01/07 03:29:24;;;;;;;6.57;5.97;;;1.80;99.90;;;;;;4949620;28;20476;-70
2021/01/07 03:31:50;;;;;;;7.70;6.23;;;1.80;99.90;;;;;;4949778;28;20503;-69
2021/01/07 03:34:16;;;;;;;6.80;5.20;;;1.80;99.90;;;;;;4950022;28;20487;-70
2021/01/07 03:36:41;;;;;;;6.80;5.30;;;1.70;99.90;;;;;;4950094;28;20181;-70
2021/01/07 03:39:07;;;;;;;5.50;5.00;;;1.70;99.90;;;;;;4949145;28;20271;-71
2021/01/07 03:41:33;;;;;;;6.53;5.90;;;1.80;99.90;;;;;;4949920;28;20196;-69
2021/01/07 03:43:58;;;;;;;4.90;4.50;;;1.80;99.90;;;;;;4949788;28;20275;-69
2021/01/07 03:46:24;;;;;;;5.43;4.73;;;1.80;99.90;;;;;;4950088;28;20450;-69
2021/01/07 03:48:49;;;;;;;5.63;5.13;;;1.80;99.90;;;;;;4949126;28;20548;-70
2021/01/07 03:51:15;;;;;;;5.97;5.37;;;1.80;99.90;;;;;;4949985;28;20682;-71
2021/01/07 03:53:40;;;;;;;6.50;5.43;;;1.80;99.90;;;;;;4949851;28;20173;-70
2021/01/07 03:56:06;;;;;;;6.43;5.07;;;1.80;99.90;;;;;;4949927;28;20184;-69
2021/01/07 03:58:31;;;;;;;5.67;4.70;;;1.70;99.90;;;;;;4948815;28;20181;-70
2021/01/07 04:00:57;;;;;;;5.40;4.87;;;1.70;99.90;;;;;;4948132;28;20667;-70
2021/01/07 04:03:22;;;;;;;6.23;5.60;;;1.70;99.90;;;;;;4949646;28;20177;-70
2021/01/07 04:05:48;;;;;;;5.60;4.90;;;1.70;99.90;;;;;;4949633;29;20181;-70
2021/01/07 04:08:14;;;;;;;5.63;4.57;;;1.60;99.90;;;;;;4948970;28;20169;-70
2021/01/07 04:10:39;;;;;;;6.03;5.43;;;1.50;99.90;;;;;;4949305;29;20199;-71
2021/01/07 04:13:05;;;;;;;6.73;6.00;;;1.50;99.90;;;;;;4949575;28;20550;-69
2021/01/07 04:15:30;;;;;;;7.30;6.60;;;1.50;99.90;;;;;;4949405;28;20184;-70
2021/01/07 04:17:56;;;;;;;6.43;5.73;;;1.50;99.90;;;;;;4948829;28;20181;-70
2021/01/07 04:20:21;;;;;;;7.33;5.40;;;1.60;99.90;;;;;;4949377;28;20220;-70
2021/01/07 04:22:47;;;;;;;5.93;5.40;;;1.60;99.90;;;;;;4949484;28;20535;-69
2021/01/07 04:25:13;;;;;;;8.67;7.17;;;1.70;99.90;;;;;;4949431;29;20183;-70
2021/01/07 04:27:38;;;;;;;5.30;4.77;;;1.70;99.90;;;;;;4948816;29;20189;-70
2021/01/07 04:30:05;;;;;;;6.00;5.20;;;1.70;99.90;;;;;;4948896;28;20216;-70
2021/01/07 04:32:31;;;;;;;6.80;5.77;;;1.80;99.90;;;;;;4948919;29;20189;-70
2021/01/07 04:34:56;;;;;;;7.43;6.13;;;1.80;99.90;;;;;;4949181;29;20427;-71
2021/01/07 04:37:22;;;;;;;7.40;5.80;;;1.70;99.90;;;;;;4949057;29;20548;-70
2021/01/07 04:39:47;;;;;;;8.70;6.67;;;1.60;99.90;;;;;;4948206;29;20639;-70
2021/01/07 04:42:13;;;;;;;7.37;6.30;;;1.60;99.90;;;;;;4949055;29;20544;-70
2021/01/07 04:44:41;;;;;;;7.50;6.53;;;1.50;99.90;;;;;;4948777;29;20197;-70
2021/01/07 04:47:06;;;;;;;9.17;7.10;;;1.60;99.90;;;;;;4949160;28;20428;-71
2021/01/07 04:49:32;;;;;;;7.47;6.60;;;1.60;99.90;;;;;;4948343;29;20919;-70
2021/01/07 04:51:59;;;;;;;10.57;7.90;;;1.70;99.90;;;;;;4949237;29;20797;-70
2021/01/07 04:54:24;;;;;;;10.97;8.80;;;1.80;99.90;;;;;;4948912;28;20428;-71
2021/01/07 04:56:51;;;;;;;7.00;6.30;;;1.70;99.90;;;;;;4949068;28;20436;-70
2021/01/07 04:59:16;;;;;;;9.10;7.53;;;1.70;99.90;;;;;;4948204;29;20230;-71
2021/01/07 05:01:42;;;;;;;8.17;7.00;;;1.70;99.90;;;;;;4948742;29;20436;-70
2021/01/07 05:04:11;;;;;;;9.63;7.73;;;1.80;99.90;;;;;;4948790;29;20357;-70
2021/01/07 05:06:37;;;;;;;8.07;7.03;;;1.80;99.90;;;;;;4947105;29;20177;-71
2021/01/07 05:09:05;;;;;;;8.70;7.50;;;1.80;99.90;;;;;;4946669;28;20487;-71
2021/01/07 05:11:32;;;;;;;10.27;7.50;;;1.80;99.90;;;;;;4948608;29;20288;-71
2021/01/07 05:14:02;;;;;;;8.97;8.00;;;1.70;99.90;;;;;;4949120;28;20432;-70
2021/01/07 05:16:28;;;;;;;10.77;7.93;;;1.70;99.90;;;;;;4948481;28;20460;-70
2021/01/07 05:18:54;;;;;;;9.27;7.90;;;1.80;99.90;;;;;;4948008;28;20460;-70
2021/01/07 05:21:21;;;;;;;9.43;7.60;;;1.80;99.90;;;;;;4950539;28;20199;-70
2021/01/07 05:23:50;;;;;;;9.60;7.27;;;1.70;99.90;;;;;;4952250;28;20511;-70
2021/01/07 05:26:18;;;;;;;11.97;8.93;;;1.70;99.90;;;;;;4952336;28;20416;-70
2021/01/07 05:28:49;;;;;;;10.73;7.20;;;1.70;99.90;;;;;;4951520;28;20421;-70
2021/01/07 05:31:22;;;;;;;11.47;8.33;;;1.80;99.90;;;;;;4952765;28;20459;-71
2021/01/07 05:33:48;;;;;;;11.70;8.37;;;1.80;99.90;;;;;;4951907;28;20431;-70
2021/01/07 05:36:21;;;;;;;9.47;8.13;;;1.80;99.90;;;;;;4952204;28;20424;-70
2021/01/07 05:38:48;;;;;;;11.70;8.50;;;1.80;99.90;;;;;;4951128;28;20429;-71
2021/01/07 05:41:15;;;;;;;10.47;8.67;;;1.70;99.90;;;;;;4952143;28;20447;-70
2021/01/07 05:43:42;;;;;;;12.07;9.63;;;1.80;99.90;;;;;;4952279;28;20436;-70
2021/01/07 05:46:08;;;;;;;11.93;9.70;;;1.80;99.90;;;;;;4952171;28;20463;-70
2021/01/07 05:48:33;;;;;;;13.43;8.73;;;1.80;99.90;;;;;;4951349;28;20448;-71
2021/01/07 05:51:03;;;;;;;11.60;9.00;;;1.80;99.90;;;;;;4951734;28;20997;-71
2021/01/07 05:53:30;;;;;;;13.20;10.37;;;1.70;99.90;;;;;;4952055;28;20268;-70
2021/01/07 05:55:57;;;;;;;13.27;9.13;;;1.80;99.90;;;;;;4951929;28;20769;-70
2021/01/07 05:58:24;;;;;;;13.23;9.73;;;1.80;99.90;;;;;;4951044;28;20516;-70
2021/01/07 06:00:53;;;;;;;10.60;8.90;;;1.80;99.90;;;;;;4949898;29;20472;-71
2021/01/07 06:03:22;;;;;;;12.73;8.90;;;1.90;99.90;;;;;;4951516;28;20483;-71
2021/01/07 06:05:49;;;;;;;11.20;8.70;;;1.90;99.90;;;;;;4951289;29;20460;-70
2021/01/07 06:08:18;;;;;;;12.30;9.70;;;1.90;99.90;;;;;;4950876;29;20946;-71
2021/01/07 06:10:47;;;;;;;10.17;8.37;;;1.90;99.90;;;;;;4951005;29;20454;-70
2021/01/07 06:13:13;;;;;;;14.27;9.60;;;2.00;99.90;;;;;;4949857;29;20429;-71
2021/01/07 06:15:40;;;;;;;12.47;9.27;;;2.00;99.90;;;;;;4950250;29;20438;-71
2021/01/07 06:18:06;;;;;;;11.97;9.53;;;1.90;99.90;;;;;;4950691;28;20424;-70
2021/01/07 06:20:33;;;;;;;16.03;10.90;;;1.90;99.90;;;;;;4951185;28;20472;-70
2021/01/07 06:22:59;;;;;;;10.90;8.27;;;1.90;99.90;;;;;;4951681;28;20968;-71
2021/01/07 06:25:25;;;;;;;12.40;9.90;;;1.90;99.90;;;;;;4951455;29;20510;-70
2021/01/07 06:27:52;;;;;;;13.83;9.73;;;1.80;99.90;;;;;;4950848;28;20424;-70
2021/01/07 06:30:18;;;;;;;15.73;9.73;;;1.90;99.90;;;;;;4951042;29;20468;-71
2021/01/07 06:32:45;;;;;;;15.57;11.37;;;1.80;99.90;;;;;;4951052;28;20491;-70
2021/01/07 06:35:16;;;;;;;14.57;10.80;;;1.80;99.90;;;;;;4950835;29;20181;-70
2021/01/07 06:37:52;;;;;;;15.10;10.93;;;1.80;99.90;;;;;;4950388;28;20463;-70
2021/01/07 06:40:22;;;;;;;17.03;11.07;;;1.70;99.90;;;;;;4950551;29;20997;-71
2021/01/07 06:42:53;;;;;;;16.63;10.77;;;1.70;99.90;;;;;;4950916;28;20430;-70
2021/01/07 06:45:24;;;;;;;14.90;11.00;;;1.70;99.90;;;;;;4950889;28;20507;-71
2021/01/07 06:47:53;;;;;;;13.60;10.10;;;1.70;99.90;;;;;;4950513;29;20479;-70
2021/01/07 06:50:19;;;;;;;17.30;11.13;;;1.70;99.90;;;;;;4949234;29;20826;-70
2021/01/07 06:52:46;;;;;;;15.10;10.47;;;1.70;99.90;;;;;;4950939;29;20424;-71
2021/01/07 06:55:13;;;;;;;17.87;11.53;;;1.70;99.90;;;;;;4950596;29;20424;-71
2021/01/07 06:57:58;;;;;;;17.60;12.07;;;1.70;99.90;;;;;;4950275;28;20431;-71
2021/01/07 07:00:25;;;;;;;13.30;10.57;;;1.70;99.90;;;;;;4950353;29;20527;-70
2021/01/07 07:03:04;;;;;;;16.30;10.23;;;1.70;99.90;;;;;;4950394;29;20475;-70
2021/01/07 07:05:32;;;;;;;18.70;13.20;;;1.70;99.90;;;;;;4950486;29;20456;-70
2021/01/07 07:08:07;;;;;;;15.90;11.87;;;1.70;99.90;;;;;;4949638;28;20516;-70
2021/01/07 07:10:33;;;;;;;14.67;10.47;;;1.70;99.90;;;;;;4950364;28;20840;-71
2021/01/07 07:12:59;;;;;;;14.57;12.63;;;1.70;99.90;;;;;;4950433;28;20425;-70
2021/01/07 07:15:27;;;;;;;18.77;11.90;;;1.70;99.90;;;;;;4951208;28;20193;-71
2021/01/07 07:17:57;;;;;;;17.33;11.63;;;1.70;99.90;;;;;;4949761;28;21032;-71
2021/01/07 07:20:26;;;;;;;13.30;10.40;;;1.70;99.90;;;;;;4950150;28;20890;-70
2021/01/07 07:22:52;;;;;;;14.33;10.40;;;1.70;99.90;;;;;;4949984;28;20495;-71
2021/01/07 07:25:25;;;;;;;16.63;11.03;;;1.70;99.90;;;;;;4950077;28;20432;-70
2021/01/07 07:27:53;;;;;;;13.60;10.20;;;1.80;99.90;;;;;;4949398;28;20519;-70
2021/01/07 07:30:29;;;;;;;16.83;12.70;;;1.80;99.90;;;;;;4949761;28;20462;-71
2021/01/07 07:32:55;;;;;;;16.17;10.33;;;1.80;99.90;;;;;;4950119;28;20831;-70
2021/01/07 07:35:26;;;;;;;13.80;11.57;;;1.90;99.90;;;;;;4949956;28;20954;-71
2021/01/07 07:37:52;;;;;;;15.63;10.53;;;1.90;99.90;;;;;;4949280;28;20443;-71
2021/01/07 07:40:41;;;;;;;14.80;10.77;;;2.00;99.90;;;;;;4949353;28;20471;-71
2021/01/07 07:43:09;;;;;;;13.57;10.67;;;2.00;99.90;;;;;;4946344;28;20432;-70
2021/01/07 07:45:38;;;;;;;14.40;11.37;;;2.00;99.90;;;;;;4949255;28;20418;-71
2021/01/07 07:48:08;;;;;;;14.67;11.13;;;2.00;99.90;;;;;;4948872;28;20443;-70
2021/01/07 07:50:33;;;;;;;18.13;11.83;;;2.00;99.90;;;;;;4949246;28;20947;-70
2021/01/07 07:53:10;;;;;;;17.60;11.87;;;2.10;99.90;;;;;;4949388;28;20511;-70
2021/01/07 07:55:40;;;;;;;11.57;10.27;;;2.10;99.90;;;;;;4949248;28;20183;-70
2021/01/07 07:58:18;;;;;;;18.20;10.90;;;2.10;99.90;;;;;;4948895;28;20750;-71
2021/01/07 08:00:57;;;;;;;14.70;10.77;;;2.00;99.90;;;;;;4949648;28;20478;-70
2021/01/07 08:03:24;;;;;;;17.17;12.13;;;2.10;99.90;;;;;;4948798;28;20439;-71
2021/01/07 08:05:49;;;;;;;13.73;10.80;;;2.10;99.90;;;;;;4949614;29;20435;-71
2021/01/07 08:08:23;;;;;;;13.70;10.90;;;2.10;99.90;;;;;;4948003;29;20955;-71
2021/01/07 08:10:48;;;;;;;17.43;13.13;;;2.10;99.90;;;;;;4949371;28;20205;-71
2021/01/07 08:13:17;;;;;;;15.30;10.60;;;2.20;99.90;;;;;;4949167;28;20428;-71
2021/01/07 08:15:47;;;;;;;18.57;12.17;;;2.30;99.90;;;;;;4949314;29;20263;-71
2021/01/07 08:18:23;;;;;;;13.97;11.40;;;2.30;99.90;;;;;;4946868;29;20446;-70
2021/01/07 08:20:53;;;;;;;13.87;10.50;;;2.30;99.90;;;;;;4949076;28;20506;-71
2021/01/07 08:23:22;;;;;;;14.00;11.60;;;2.40;99.90;;;;;;4948730;28;20431;-71
2021/01/07 08:25:52;;;;;;;13.73;10.77;;;2.40;99.90;;;;;;4949100;28;20459;-71
2021/01/07 08:28:37;;;;;;;15.27;11.33;;;2.50;99.90;;;;;;4948350;28;20424;-71
2021/01/07 08:31:12;;;;;;;17.80;11.87;;;2.50;99.90;;;;;;4947685;29;20593;-70
2021/01/07 08:33:38;;;;;;;17.20;12.47;;;2.40;99.90;;;;;;4949422;28;20871;-71
2021/01/07 08:36:08;;;;;;;14.63;10.60;;;2.50;99.90;;;;;;4949248;28;20893;-70
2021/01/07 08:38:36;;;;;;;15.53;10.93;;;2.50;99.90;;;;;;4948680;28;20188;-70
2021/01/07 08:41:12;;;;;;;13.43;10.80;;;2.60;99.90;;;;;;4949024;28;21009;-70
2021/01/07 08:43:39;;;;;;;10.87;9.13;;;2.70;99.90;;;;;;4949278;28;20427;-70
2021/01/07 08:46:18;;;;;;;12.80;9.80;;;2.60;99.90;;;;;;4949065;28;20421;-70
2021/01/07 08:48:55;;;;;;;17.33;10.63;;;2.70;99.90;;;;;;4948710;28;20820;-70
2021/01/07 08:51:22;;;;;;;18.40;12.20;;;2.70;99.90;;;;;;4948900;28;20547;-70
2021/01/07 08:53:51;;;;;;;14.10;10.93;;;2.70;99.90;;;;;;4949168;28;20420;-70
2021/01/07 08:56:36;;;;;;;12.50;9.83;;;2.70;99.90;;;;;;4950727;28;21040;-70
2021/01/07 08:59:30;;;;;;;13.47;9.77;;;2.70;99.90;;;;;;4952245;28;20464;-70
2021/01/07 09:02:05;;;;;;;13.40;11.63;;;2.70;99.90;;;;;;4952719;28;20820;-70
2021/01/07 09:04:39;;;;;;;12.63;8.63;;;2.70;99.90;;;;;;4952939;28;20412;-70
2021/01/07 09:07:25;;;;;;;11.83;9.70;;;2.60;99.90;;;;;;4952797;28;20452;-70
2021/01/07 09:09:56;;;;;;;13.10;10.03;;;2.50;99.90;;;;;;4951868;28;20523;-71
2021/01/07 09:12:27;;;;;;;12.93;9.70;;;2.50;99.90;;;;;;4952757;28;20519;-71
2021/01/07 09:15:10;;;;;;;15.40;11.27;;;2.60;99.90;;;;;;4952629;28;20520;-70
2021/01/07 09:17:52;;;;;;;15.93;11.47;;;2.60;99.90;;;;;;4952324;28;20487;-71
2021/01/07 09:20:28;;;;;;;15.07;10.57;;;2.70;99.90;;;;;;4952381;28;20475;-70
2021/01/07 09:23:05;;;;;;;15.57;10.43;;;2.80;99.90;;;;;;4952822;28;20430;-70
2021/01/07 09:25:31;;;;;;;12.27;9.33;;;2.90;99.90;;;;;;4952605;28;20577;-70
2021/01/07 09:27:57;;;;;;;17.80;12.40;;;2.90;99.90;;;;;;4952140;28;20523;-70
2021/01/07 09:30:24;;;;;;;21.87;16.53;;;3.10;99.90;;;;;;4952606;28;20217;-70
2021/01/07 09:32:50;;;;;;;20.50;16.00;;;3.10;99.90;;;;;;4952847;28;20432;-70
2021/01/07 09:35:16;;;;;;;16.70;13.27;;;3.20;99.90;;;;;;4952496;28;20783;-70
2021/01/07 09:37:41;;;;;;;20.93;15.73;;;3.30;99.90;;;;;;4951782;28;20185;-70
2021/01/07 09:40:08;;;;;;;14.40;11.40;;;3.30;99.90;;;;;;4951995;28;20256;-70
2021/01/07 09:42:33;;;;;;;14.90;13.30;;;3.30;99.90;;;;;;4952230;28;20272;-70
2021/01/07 09:45:00;;;;;;;13.73;11.87;;;3.50;99.90;;;;;;4952271;28;20520;-70
2021/01/07 09:47:26;;;;;;;13.90;11.40;;;3.50;99.90;;;;;;4950464;29;20192;-70
2021/01/07 09:49:53;;;;;;;13.30;11.83;;;3.50;99.90;;;;;;4951174;28;20444;-70
2021/01/07 09:52:18;;;;;;;13.60;11.20;;;3.60;99.90;;;;;;4951715;28;20428;-70
2021/01/07 09:54:44;;;;;;;13.07;10.37;;;3.70;99.90;;;;;;4951961;28;20863;-70
2021/01/07 09:57:10;;;;;;;14.90;11.87;;;3.60;99.90;;;;;;4951641;28;20911;-70
2021/01/07 09:59:36;;;;;;;11.60;9.20;;;3.60;99.90;;;;;;4951205;28;20223;-70
2021/01/07 10:02:09;;;;;;;12.50;10.30;;;3.60;99.90;;;;;;4951692;28;20907;-70
2021/01/07 10:04:36;;;;;;;11.17;8.80;;;3.50;99.90;;;;;;4951490;28;20216;-70
2021/01/07 10:07:04;;;;;;;12.90;9.93;;;3.50;99.90;;;;;;4951175;28;20436;-70
2021/01/07 10:09:29;;;;;;;12.80;10.50;;;3.50;99.90;;;;;;4950636;29;20864;-70
2021/01/07 10:11:57;;;;;;;16.47;10.80;;;3.50;99.90;;;;;;4951475;29;20456;-70
2021/01/07 10:14:24;;;;;;;14.03;10.40;;;3.60;99.90;;;;;;4951474;28;20216;-70
2021/01/07 10:16:58;;;;;;;12.33;10.40;;;3.80;99.90;;;;;;4951464;28;20440;-70
2021/01/07 10:19:26;;;;;;;13.63;10.60;;;3.80;99.90;;;;;;4950776;28;20994;-70
2021/01/07 10:22:04;;;;;;;13.10;10.63;;;3.90;99.90;;;;;;4951903;28;20479;-71
2021/01/07 10:24:31;;;;;;;15.07;11.40;;;4.00;99.90;;;;;;4951371;28;20453;-71
2021/01/07 10:27:02;;;;;;;12.00;10.53;;;4.10;99.90;;;;;;4951772;29;20911;-71
2021/01/07 10:29:32;;;;;;;11.70;8.93;;;4.20;99.90;;;;;;4950877;29;20587;-71
2021/01/07 10:32:06;;;;;;;13.17;9.80;;;4.00;99.90;;;;;;4951332;28;20921;-70
2021/01/07 10:34:38;;;;;;;12.43;9.97;;;3.90;99.90;;;;;;4951216;29;20431;-70
2021/01/07 10:37:05;;;;;;;11.90;9.80;;;3.90;99.90;;;;;;4951166;28;20417;-70
2021/01/07 10:39:35;;;;;;;11.53;9.70;;;4.00;99.90;;;;;;4950362;28;20547;-70
2021/01/07 10:42:03;;;;;;;14.13;10.70;;;4.10;99.90;;;;;;4951029;29;20487;-70
2021/01/07 10:44:32;;;;;;;14.33;10.77;;;4.10;99.90;;;;;;4950768;28;21077;-70
2021/01/07 10:46:59;;;;;;;12.80;9.77;;;4.20;99.90;;;;;;4950730;29;20504;-71
2021/01/07 10:49:30;;;;;;;15.00;10.53;;;4.40;99.90;;;;;;4950212;28;21008;-70
2021/01/07 10:51:58;;;;;;;12.87;10.17;;;4.60;99.90;;;;;;4950743;28;20531;-70
2021/01/07 10:54:49;;;;;;;11.00;9.33;;;4.80;99.90;;;;;;4950939;29;20491;-70
2021/01/07 10:57:41;;;;;;;10.93;7.80;;;4.60;99.90;;;;;;4950750;29;20425;-70
2021/01/07 11:00:21;;;;;;;13.63;9.27;;;4.50;99.90;;;;;;4949373;29;20467;-71
2021/01/07 11:03:05;;;;;;;11.93;10.63;;;4.40;99.90;;;;;;4950545;29;20428;-70
2021/01/07 11:05:37;;;;;;;12.90;9.87;;;4.70;99.90;;;;;;4950813;28;20475;-70
2021/01/07 11:08:20;;;;;;;12.10;9.53;;;4.80;99.90;;;;;;4949778;28;20429;-71
2021/01/07 11:10:53;;;;;;;10.90;9.47;;;5.10;99.90;;;;;;4950120;28;20456;-71
2021/01/07 11:13:24;;;;;;;9.43;7.97;;;5.30;99.90;;;;;;4950468;28;20930;-71
2021/01/07 11:15:58;;;;;;;13.07;9.03;;;5.40;99.90;;;;;;4950359;28;20507;-70
2021/01/07 11:18:33;;;;;;;9.80;8.80;;;5.60;99.90;;;;;;4948902;28;20911;-71
2021/01/07 11:21:02;;;;;;;14.83;9.53;;;5.70;99.90;;;;;;4950402;28;20477;-70
2021/01/07 11:23:28;;;;;;;14.17;11.07;;;6.00;99.90;;;;;;4950408;28;20439;-71
2021/01/07 11:25:54;;;;;;;11.73;9.80;;;6.30;99.90;;;;;;4950046;28;20431;-71
2021/01/07 11:28:20;;;;;;;8.87;7.97;;;6.50;99.90;;;;;;4949613;28;20424;-70
2021/01/07 11:30:47;;;;;;;9.83;6.93;;;6.50;99.90;;;;;;4950486;28;20456;-71
2021/01/07 11:33:15;;;;;;;8.30;7.40;;;6.90;99.90;;;;;;4950132;28;20219;-72
2021/01/07 11:35:43;;;;;;;7.30;6.50;;;7.30;99.90;;;;;;4949852;28;20957;-71
2021/01/07 11:38:21;;;;;;;8.70;7.40;;;7.20;99.90;;;;;;4949094;28;20443;-71
2021/01/07 11:40:53;;;;;;;11.17;8.67;;;7.20;99.90;;;;;;4950021;28;20554;-71
2021/01/07 11:43:42;;;;;;;11.07;8.57;;;7.50;99.90;;;;;;4949587;28;20455;-71
2021/01/07 11:46:13;;;;;;;8.60;7.60;;;7.40;99.90;;;;;;4948506;28;20809;-71
2021/01/07 11:48:41;;;;;;;17.73;8.47;;;6.60;99.90;;;;;;4948999;28;20531;-71
2021/01/07 11:51:11;;;;;;;12.77;9.37;;;6.00;99.90;;;;;;4950031;28;20453;-70
2021/01/07 11:53:37;;;;;;;10.63;8.20;;;5.80;99.90;;;;;;4950064;28;20424;-70
2021/01/07 11:56:03;;;;;;;9.97;8.87;;;5.60;99.90;;;;;;4950100;28;20428;-71
2021/01/07 11:58:30;;;;;;;10.60;9.10;;;5.60;99.90;;;;;;4948758;28;20954;-71
2021/01/07 12:00:56;;;;;;;11.60;8.80;;;5.60;99.90;;;;;;4949755;28;20930;-71
2021/01/07 12:03:41;;;;;;;9.40;8.27;;;5.40;99.90;;;;;;4947918;29;20815;-72
2021/01/07 12:06:08;;;;;;;11.17;9.23;;;5.10;99.90;;;;;;4949626;29;20416;-71
2021/01/07 12:08:39;;;;;;;11.30;9.00;;;5.00;99.90;;;;;;4948508;28;20439;-70
2021/01/07 12:11:07;;;;;;;11.57;9.07;;;5.00;99.90;;;;;;4949448;29;20440;-71
2021/01/07 12:13:56;;;;;;;9.33;8.30;;;5.00;99.90;;;;;;4949257;29;20455;-71
2021/01/07 12:16:29;;;;;;;11.13;8.90;;;5.00;99.90;;;;;;4949169;28;20432;-70
2021/01/07 12:18:56;;;;;;;12.10;8.80;;;4.80;99.90;;;;;;4948846;29;20428;-72
2021/01/07 12:21:22;;;;;;;12.07;8.93;;;4.70;99.90;;;;;;4947737;29;20985;-71
2021/01/07 12:23:48;;;;;;;10.60;8.90;;;4.40;99.90;;;;;;4949522;28;20421;-71
2021/01/07 12:26:14;;;;;;;10.97;8.60;;;4.30;99.90;;;;;;4949313;28;20177;-69
2021/01/07 12:28:42;;;;;;;11.90;9.37;;;4.30;99.90;;;;;;4948514;29;20750;-70
2021/01/07 12:31:09;;;;;;;13.00;9.60;;;4.30;99.90;;;;;;4948545;28;20947;-70
2021/01/07 12:34:02;;;;;;;9.90;8.13;;;4.20;99.90;;;;;;4947743;29;20461;-71
2021/01/07 12:36:43;;;;;;;13.43;9.57;;;4.20;99.90;;;;;;4949239;29;20456;-70
2021/01/07 12:39:34;;;;;;;12.40;8.77;;;4.30;99.90;;;;;;4947346;29;20518;-70
2021/01/07 12:42:02;;;;;;;11.90;9.07;;;4.30;99.90;;;;;;4947794;29;20877;-71
2021/01/07 12:44:32;;;;;;;14.33;9.30;;;4.40;99.90;;;;;;4949241;29;20429;-71
2021/01/07 12:46:58;;;;;;;14.90;10.57;;;4.30;99.90;;;;;;4949461;29;20421;-71
2021/01/07 12:49:28;;;;;;;13.57;10.27;;;4.20;99.90;;;;;;4947290;29;20965;-72
2021/01/07 12:51:54;;;;;;;14.83;11.17;;;4.30;99.90;;;;;;4964000;28;20480;-71
2021/01/07 12:54:20;;;;;;;10.50;9.40;;;4.40;99.90;;;;;;4948902;29;20957;-71
2021/01/07 12:56:52;;;;;;;11.53;8.70;;;4.40;99.90;;;;;;4948870;29;20428;-72